sensor_id;sensor_type;location;lat;lon;timestamp;P1;durP1;ratioP1;P2;durP2;ratioP2
3405;SDS011;10008;48.682;9.016;2024-02-16T00:00:26;18.33;;;16.73;;
3405;SDS011;10008;48.682;9.016;2024-02-16T00:02:52;17.07;;;15.60;;
3405;SDS011;10008;48.682;9.016;2024-02-16T00:05:18;17.40;;;15.90;;
3405;SDS011;10008;48.682;9.016;2024-02-16T00:07:44;16.50;;;15.10;;
3405;SDS011;10008;48.682;9.016;2024-02-16T00:10:10;17.47;;;15.60;;
3405;SDS011;10008;48.682;9.016;2024-02-16T00:12:37;16.07;;;14.67;;
3405;SDS011;10008;48.682;9.016;2024-02-16T00:15:05;16.60;;;14.90;;
3405;SDS011;10008;48.682;9.016;2024-02-16T00:17:31;15.40;;;14.20;;
3405;SDS011;10008;48.682;9.016;2024-02-16T00:19:58;16.13;;;14.57;;
3405;SDS011;10008;48.682;9.016;2024-02-16T00:22:24;15.80;;;14.30;;
3405;SDS011;10008;48.682;9.016;2024-02-16T00:24:51;16.37;;;14.97;;
3405;SDS011;10008;48.682;9.016;2024-02-16T00:27:16;14.67;;;13.53;;
3405;SDS011;10008;48.682;9.016;2024-02-16T00:29:42;15.20;;;13.90;;
3405;SDS011;10008;48.682;9.016;2024-02-16T00:32:08;15.20;;;13.70;;
3405;SDS011;10008;48.682;9.016;2024-02-16T00:34:34;16.57;;;15.00;;
3405;SDS011;10008;48.682;9.016;2024-02-16T00:37:01;18.20;;;16.50;;
3405;SDS011;10008;48.682;9.016;2024-02-16T00:39:29;16.80;;;15.30;;
3405;SDS011;10008;48.682;9.016;2024-02-16T00:41:54;16.10;;;14.70;;
3405;SDS011;10008;48.682;9.016;2024-02-16T00:44:20;16.50;;;15.20;;
3405;SDS011;10008;48.682;9.016;2024-02-16T00:46:46;14.93;;;13.70;;
3405;SDS011;10008;48.682;9.016;2024-02-16T00:49:12;15.50;;;14.20;;
3405;SDS011;10008;48.682;9.016;2024-02-16T00:51:37;14.60;;;13.20;;
3405;SDS011;10008;48.682;9.016;2024-02-16T00:54:04;17.50;;;13.83;;
3405;SDS011;10008;48.682;9.016;2024-02-16T00:56:30;15.03;;;13.73;;
3405;SDS011;10008;48.682;9.016;2024-02-16T00:58:57;14.57;;;13.07;;
3405;SDS011;10008;48.682;9.016;2024-02-16T01:01:23;14.03;;;12.93;;
3405;SDS011;10008;48.682;9.016;2024-02-16T01:03:50;14.47;;;13.30;;
3405;SDS011;10008;48.682;9.016;2024-02-16T01:06:17;14.83;;;13.47;;
3405;SDS011;10008;48.682;9.016;2024-02-16T01:08:43;14.17;;;12.97;;
3405;SDS011;10008;48.682;9.016;2024-02-16T01:11:09;14.00;;;12.90;;
3405;SDS011;10008;48.682;9.016;2024-02-16T01:13:35;13.93;;;12.83;;
3405;SDS011;10008;48.682;9.016;2024-02-16T01:16:01;14.80;;;13.63;;
3405;SDS011;10008;48.682;9.016;2024-02-16T01:18:28;15.67;;;14.27;;
3405;SDS011;10008;48.682;9.016;2024-02-16T01:20:55;15.00;;;13.70;;
3405;SDS011;10008;48.682;9.016;2024-02-16T01:23:21;13.73;;;12.53;;
3405;SDS011;10008;48.682;9.016;2024-02-16T01:25:47;15.33;;;13.77;;
3405;SDS011;10008;48.682;9.016;2024-02-16T01:28:13;16.23;;;13.37;;
3405;SDS011;10008;48.682;9.016;2024-02-16T01:30:39;14.23;;;13.03;;
3405;SDS011;10008;48.682;9.016;2024-02-16T01:33:05;12.77;;;11.70;;
3405;SDS011;10008;48.682;9.016;2024-02-16T01:35:32;12.60;;;11.60;;
3405;SDS011;10008;48.682;9.016;2024-02-16T01:37:58;13.47;;;12.37;;
3405;SDS011;10008;48.682;9.016;2024-02-16T01:40:24;13.63;;;12.53;;
3405;SDS011;10008;48.682;9.016;2024-02-16T01:42:51;13.93;;;12.63;;
3405;SDS011;10008;48.682;9.016;2024-02-16T01:45:20;14.33;;;13.10;;
3405;SDS011;10008;48.682;9.016;2024-02-16T01:47:47;15.00;;;13.80;;
3405;SDS011;10008;48.682;9.016;2024-02-16T01:50:15;15.13;;;13.90;;
3405;SDS011;10008;48.682;9.016;2024-02-16T01:52:46;15.80;;;14.50;;
3405;SDS011;10008;48.682;9.016;2024-02-16T01:55:12;16.13;;;14.83;;
3405;SDS011;10008;48.682;9.016;2024-02-16T01:57:39;15.23;;;13.83;;
3405;SDS011;10008;48.682;9.016;2024-02-16T02:00:08;14.80;;;13.63;;
3405;SDS011;10008;48.682;9.016;2024-02-16T02:02:34;14.50;;;13.50;;
3405;SDS011;10008;48.682;9.016;2024-02-16T02:05:00;14.60;;;13.50;;
3405;SDS011;10008;48.682;9.016;2024-02-16T02:07:27;14.77;;;13.57;;
3405;SDS011;10008;48.682;9.016;2024-02-16T02:09:53;14.37;;;13.37;;
3405;SDS011;10008;48.682;9.016;2024-02-16T02:12:19;14.43;;;13.03;;
3405;SDS011;10008;48.682;9.016;2024-02-16T02:14:44;15.40;;;14.20;;
3405;SDS011;10008;48.682;9.016;2024-02-16T02:17:11;15.53;;;14.30;;
3405;SDS011;10008;48.682;9.016;2024-02-16T02:19:37;14.80;;;13.40;;
3405;SDS011;10008;48.682;9.016;2024-02-16T02:22:03;15.73;;;14.30;;
3405;SDS011;10008;48.682;9.016;2024-02-16T02:24:29;15.00;;;13.80;;
3405;SDS011;10008;48.682;9.016;2024-02-16T02:26:55;15.60;;;14.30;;
3405;SDS011;10008;48.682;9.016;2024-02-16T02:29:22;16.33;;;14.77;;
3405;SDS011;10008;48.682;9.016;2024-02-16T02:31:48;15.87;;;14.60;;
3405;SDS011;10008;48.682;9.016;2024-02-16T02:34:14;16.27;;;14.97;;
3405;SDS011;10008;48.682;9.016;2024-02-16T02:36:40;15.90;;;14.70;;
3405;SDS011;10008;48.682;9.016;2024-02-16T02:39:06;15.97;;;14.57;;
3405;SDS011;10008;48.682;9.016;2024-02-16T02:41:32;14.93;;;13.83;;
3405;SDS011;10008;48.682;9.016;2024-02-16T02:43:58;15.23;;;13.90;;
3405;SDS011;10008;48.682;9.016;2024-02-16T02:46:23;15.10;;;13.70;;
3405;SDS011;10008;48.682;9.016;2024-02-16T02:48:49;14.23;;;12.93;;
3405;SDS011;10008;48.682;9.016;2024-02-16T02:51:16;14.50;;;13.20;;
3405;SDS011;10008;48.682;9.016;2024-02-16T02:53:42;13.83;;;12.63;;
3405;SDS011;10008;48.682;9.016;2024-02-16T02:56:08;14.00;;;12.83;;
3405;SDS011;10008;48.682;9.016;2024-02-16T02:58:34;13.67;;;12.67;;
3405;SDS011;10008;48.682;9.016;2024-02-16T03:00:59;13.83;;;12.73;;
3405;SDS011;10008;48.682;9.016;2024-02-16T03:03:25;13.80;;;12.60;;
3405;SDS011;10008;48.682;9.016;2024-02-16T03:05:51;14.10;;;12.70;;
3405;SDS011;10008;48.682;9.016;2024-02-16T03:08:17;16.17;;;14.60;;
3405;SDS011;10008;48.682;9.016;2024-02-16T03:10:43;14.87;;;13.57;;
3405;SDS011;10008;48.682;9.016;2024-02-16T03:13:09;13.90;;;12.80;;
3405;SDS011;10008;48.682;9.016;2024-02-16T03:15:37;14.43;;;13.33;;
3405;SDS011;10008;48.682;9.016;2024-02-16T03:18:04;14.57;;;13.17;;
3405;SDS011;10008;48.682;9.016;2024-02-16T03:20:34;14.50;;;13.30;;
3405;SDS011;10008;48.682;9.016;2024-02-16T03:23:00;14.80;;;13.60;;
3405;SDS011;10008;48.682;9.016;2024-02-16T03:25:26;14.27;;;13.07;;
3405;SDS011;10008;48.682;9.016;2024-02-16T03:27:52;13.70;;;12.60;;
3405;SDS011;10008;48.682;9.016;2024-02-16T03:30:18;13.23;;;12.10;;
3405;SDS011;10008;48.682;9.016;2024-02-16T03:32:50;14.27;;;13.00;;
3405;SDS011;10008;48.682;9.016;2024-02-16T03:35:17;13.77;;;12.67;;
3405;SDS011;10008;48.682;9.016;2024-02-16T03:37:43;13.03;;;12.03;;
3405;SDS011;10008;48.682;9.016;2024-02-16T03:40:10;13.87;;;12.57;;
3405;SDS011;10008;48.682;9.016;2024-02-16T03:42:38;14.10;;;12.90;;
3405;SDS011;10008;48.682;9.016;2024-02-16T03:45:06;13.27;;;12.23;;
3405;SDS011;10008;48.682;9.016;2024-02-16T03:47:32;12.90;;;11.90;;
3405;SDS011;10008;48.682;9.016;2024-02-16T03:49:58;13.83;;;12.73;;
3405;SDS011;10008;48.682;9.016;2024-02-16T03:52:24;15.40;;;12.93;;
3405;SDS011;10008;48.682;9.016;2024-02-16T03:54:50;13.40;;;12.30;;
3405;SDS011;10008;48.682;9.016;2024-02-16T03:57:16;13.70;;;12.50;;
3405;SDS011;10008;48.682;9.016;2024-02-16T03:59:45;14.33;;;13.03;;
3405;SDS011;10008;48.682;9.016;2024-02-16T04:02:11;13.80;;;12.50;;
3405;SDS011;10008;48.682;9.016;2024-02-16T04:04:40;13.80;;;12.50;;
3405;SDS011;10008;48.682;9.016;2024-02-16T04:07:06;13.80;;;12.60;;
3405;SDS011;10008;48.682;9.016;2024-02-16T04:09:33;14.53;;;13.33;;
3405;SDS011;10008;48.682;9.016;2024-02-16T04:12:00;14.70;;;13.50;;
3405;SDS011;10008;48.682;9.016;2024-02-16T04:14:26;14.13;;;12.97;;
3405;SDS011;10008;48.682;9.016;2024-02-16T04:16:52;14.10;;;12.90;;
3405;SDS011;10008;48.682;9.016;2024-02-16T04:19:18;14.00;;;12.90;;
3405;SDS011;10008;48.682;9.016;2024-02-16T04:21:43;14.00;;;12.80;;
3405;SDS011;10008;48.682;9.016;2024-02-16T04:24:09;14.73;;;13.43;;
3405;SDS011;10008;48.682;9.016;2024-02-16T04:26:35;14.43;;;13.13;;
3405;SDS011;10008;48.682;9.016;2024-02-16T04:29:01;13.37;;;12.27;;
3405;SDS011;10008;48.682;9.016;2024-02-16T04:31:29;14.70;;;13.50;;
3405;SDS011;10008;48.682;9.016;2024-02-16T04:33:55;15.07;;;13.77;;
3405;SDS011;10008;48.682;9.016;2024-02-16T04:36:20;14.13;;;13.03;;
3405;SDS011;10008;48.682;9.016;2024-02-16T04:38:46;14.13;;;12.83;;
3405;SDS011;10008;48.682;9.016;2024-02-16T04:41:12;14.67;;;13.47;;
3405;SDS011;10008;48.682;9.016;2024-02-16T04:43:38;14.07;;;12.83;;
3405;SDS011;10008;48.682;9.016;2024-02-16T04:46:04;15.63;;;13.70;;
3405;SDS011;10008;48.682;9.016;2024-02-16T04:48:30;13.83;;;12.70;;
3405;SDS011;10008;48.682;9.016;2024-02-16T04:50:57;13.93;;;12.83;;
3405;SDS011;10008;48.682;9.016;2024-02-16T04:53:23;14.23;;;13.03;;
3405;SDS011;10008;48.682;9.016;2024-02-16T04:55:48;14.07;;;12.87;;
3405;SDS011;10008;48.682;9.016;2024-02-16T04:58:14;15.23;;;13.83;;
3405;SDS011;10008;48.682;9.016;2024-02-16T05:00:40;13.90;;;12.80;;
3405;SDS011;10008;48.682;9.016;2024-02-16T05:03:06;15.53;;;14.23;;
3405;SDS011;10008;48.682;9.016;2024-02-16T05:05:31;20.43;;;18.40;;
3405;SDS011;10008;48.682;9.016;2024-02-16T05:07:57;15.20;;;13.83;;
3405;SDS011;10008;48.682;9.016;2024-02-16T05:10:23;14.27;;;13.07;;
3405;SDS011;10008;48.682;9.016;2024-02-16T05:12:49;15.00;;;13.80;;
3405;SDS011;10008;48.682;9.016;2024-02-16T05:15:14;14.40;;;13.20;;
3405;SDS011;10008;48.682;9.016;2024-02-16T05:17:41;14.60;;;13.20;;
3405;SDS011;10008;48.682;9.016;2024-02-16T05:20:10;14.50;;;13.10;;
3405;SDS011;10008;48.682;9.016;2024-02-16T05:22:43;19.40;;;14.30;;
3405;SDS011;10008;48.682;9.016;2024-02-16T05:25:11;14.47;;;13.27;;
3405;SDS011;10008;48.682;9.016;2024-02-16T05:27:44;13.77;;;12.67;;
3405;SDS011;10008;48.682;9.016;2024-02-16T05:30:10;14.70;;;13.50;;
3405;SDS011;10008;48.682;9.016;2024-02-16T05:32:38;15.77;;;14.23;;
3405;SDS011;10008;48.682;9.016;2024-02-16T05:35:04;15.47;;;14.27;;
3405;SDS011;10008;48.682;9.016;2024-02-16T05:37:46;15.00;;;13.80;;
3405;SDS011;10008;48.682;9.016;2024-02-16T05:40:14;14.37;;;13.23;;
3405;SDS011;10008;48.682;9.016;2024-02-16T05:42:52;15.17;;;13.87;;
3405;SDS011;10008;48.682;9.016;2024-02-16T05:45:19;15.60;;;14.30;;
3405;SDS011;10008;48.682;9.016;2024-02-16T05:47:48;21.33;;;17.20;;
3405;SDS011;10008;48.682;9.016;2024-02-16T05:50:15;14.60;;;13.33;;
3405;SDS011;10008;48.682;9.016;2024-02-16T05:52:41;16.57;;;14.53;;
3405;SDS011;10008;48.682;9.016;2024-02-16T05:55:08;15.00;;;13.80;;
3405;SDS011;10008;48.682;9.016;2024-02-16T05:57:35;14.83;;;13.63;;
3405;SDS011;10008;48.682;9.016;2024-02-16T06:00:06;15.13;;;13.83;;
3405;SDS011;10008;48.682;9.016;2024-02-16T06:02:33;15.63;;;13.20;;
3405;SDS011;10008;48.682;9.016;2024-02-16T06:04:59;14.07;;;12.97;;
3405;SDS011;10008;48.682;9.016;2024-02-16T06:07:26;14.27;;;13.07;;
3405;SDS011;10008;48.682;9.016;2024-02-16T06:09:51;14.13;;;12.83;;
3405;SDS011;10008;48.682;9.016;2024-02-16T06:12:19;14.00;;;12.90;;
3405;SDS011;10008;48.682;9.016;2024-02-16T06:14:45;13.50;;;12.40;;
3405;SDS011;10008;48.682;9.016;2024-02-16T06:17:11;13.40;;;12.30;;
3405;SDS011;10008;48.682;9.016;2024-02-16T06:19:39;13.67;;;12.47;;
3405;SDS011;10008;48.682;9.016;2024-02-16T06:22:06;13.73;;;12.53;;
3405;SDS011;10008;48.682;9.016;2024-02-16T06:24:33;13.93;;;12.73;;
3405;SDS011;10008;48.682;9.016;2024-02-16T06:26:59;14.00;;;12.70;;
3405;SDS011;10008;48.682;9.016;2024-02-16T06:29:25;13.10;;;12.00;;
3405;SDS011;10008;48.682;9.016;2024-02-16T06:31:51;15.17;;;11.77;;
3405;SDS011;10008;48.682;9.016;2024-02-16T06:34:17;13.50;;;12.20;;
3405;SDS011;10008;48.682;9.016;2024-02-16T06:36:44;14.30;;;13.10;;
3405;SDS011;10008;48.682;9.016;2024-02-16T06:39:10;14.00;;;12.73;;
3405;SDS011;10008;48.682;9.016;2024-02-16T06:41:36;13.70;;;12.60;;
3405;SDS011;10008;48.682;9.016;2024-02-16T06:44:04;13.73;;;12.40;;
3405;SDS011;10008;48.682;9.016;2024-02-16T06:46:29;13.87;;;12.77;;
3405;SDS011;10008;48.682;9.016;2024-02-16T06:48:55;13.90;;;12.70;;
3405;SDS011;10008;48.682;9.016;2024-02-16T06:51:24;13.83;;;12.63;;
3405;SDS011;10008;48.682;9.016;2024-02-16T06:53:52;13.00;;;11.90;;
3405;SDS011;10008;48.682;9.016;2024-02-16T06:56:18;12.93;;;11.83;;
3405;SDS011;10008;48.682;9.016;2024-02-16T06:58:44;13.30;;;12.10;;
3405;SDS011;10008;48.682;9.016;2024-02-16T07:01:11;12.77;;;11.77;;
3405;SDS011;10008;48.682;9.016;2024-02-16T07:03:41;13.33;;;12.03;;
3405;SDS011;10008;48.682;9.016;2024-02-16T07:06:08;13.27;;;12.03;;
3405;SDS011;10008;48.682;9.016;2024-02-16T07:08:41;13.90;;;12.60;;
3405;SDS011;10008;48.682;9.016;2024-02-16T07:11:08;13.57;;;12.47;;
3405;SDS011;10008;48.682;9.016;2024-02-16T07:13:38;14.83;;;13.63;;
3405;SDS011;10008;48.682;9.016;2024-02-16T07:16:05;14.43;;;13.13;;
3405;SDS011;10008;48.682;9.016;2024-02-16T07:18:34;14.03;;;12.63;;
3405;SDS011;10008;48.682;9.016;2024-02-16T07:21:00;13.90;;;12.70;;
3405;SDS011;10008;48.682;9.016;2024-02-16T07:23:27;14.10;;;12.80;;
3405;SDS011;10008;48.682;9.016;2024-02-16T07:25:53;14.30;;;13.10;;
3405;SDS011;10008;48.682;9.016;2024-02-16T07:28:21;13.00;;;11.93;;
3405;SDS011;10008;48.682;9.016;2024-02-16T07:30:47;13.40;;;12.20;;
3405;SDS011;10008;48.682;9.016;2024-02-16T07:33:14;14.43;;;13.13;;
3405;SDS011;10008;48.682;9.016;2024-02-16T07:35:40;14.27;;;12.97;;
3405;SDS011;10008;48.682;9.016;2024-02-16T07:38:06;16.63;;;13.27;;
3405;SDS011;10008;48.682;9.016;2024-02-16T07:40:32;14.30;;;13.00;;
3405;SDS011;10008;48.682;9.016;2024-02-16T07:42:58;25.30;;;22.60;;
3405;SDS011;10008;48.682;9.016;2024-02-16T07:45:24;25.63;;;22.93;;
3405;SDS011;10008;48.682;9.016;2024-02-16T07:47:50;15.20;;;13.60;;
3405;SDS011;10008;48.682;9.016;2024-02-16T07:50:19;15.10;;;13.67;;
3405;SDS011;10008;48.682;9.016;2024-02-16T07:52:45;14.53;;;13.10;;
3405;SDS011;10008;48.682;9.016;2024-02-16T07:55:11;14.10;;;12.83;;
3405;SDS011;10008;48.682;9.016;2024-02-16T07:57:37;13.97;;;12.77;;
3405;SDS011;10008;48.682;9.016;2024-02-16T08:00:04;13.20;;;12.10;;
3405;SDS011;10008;48.682;9.016;2024-02-16T08:02:30;14.00;;;12.70;;
3405;SDS011;10008;48.682;9.016;2024-02-16T08:04:56;13.77;;;12.67;;
3405;SDS011;10008;48.682;9.016;2024-02-16T08:07:23;14.47;;;12.77;;
3405;SDS011;10008;48.682;9.016;2024-02-16T08:09:49;14.10;;;12.70;;
3405;SDS011;10008;48.682;9.016;2024-02-16T08:12:15;14.47;;;12.97;;
3405;SDS011;10008;48.682;9.016;2024-02-16T08:14:41;14.60;;;13.20;;
3405;SDS011;10008;48.682;9.016;2024-02-16T08:17:08;15.43;;;13.60;;
3405;SDS011;10008;48.682;9.016;2024-02-16T08:19:35;14.27;;;12.77;;
3405;SDS011;10008;48.682;9.016;2024-02-16T08:22:02;14.03;;;12.77;;
3405;SDS011;10008;48.682;9.016;2024-02-16T08:24:35;15.70;;;13.27;;
3405;SDS011;10008;48.682;9.016;2024-02-16T08:27:02;14.90;;;13.40;;
3405;SDS011;10008;48.682;9.016;2024-02-16T08:29:29;14.83;;;13.40;;
3405;SDS011;10008;48.682;9.016;2024-02-16T08:31:55;17.40;;;15.70;;
3405;SDS011;10008;48.682;9.016;2024-02-16T08:34:21;15.93;;;14.33;;
3405;SDS011;10008;48.682;9.016;2024-02-16T08:36:47;14.47;;;13.00;;
3405;SDS011;10008;48.682;9.016;2024-02-16T08:39:14;13.50;;;12.17;;
3405;SDS011;10008;48.682;9.016;2024-02-16T08:41:41;13.10;;;11.90;;
3405;SDS011;10008;48.682;9.016;2024-02-16T08:44:09;12.70;;;11.70;;
3405;SDS011;10008;48.682;9.016;2024-02-16T08:46:38;12.43;;;11.43;;
3405;SDS011;10008;48.682;9.016;2024-02-16T08:49:05;12.53;;;11.53;;
3405;SDS011;10008;48.682;9.016;2024-02-16T08:51:31;12.80;;;11.70;;
3405;SDS011;10008;48.682;9.016;2024-02-16T08:53:58;13.07;;;11.87;;
3405;SDS011;10008;48.682;9.016;2024-02-16T08:56:24;12.30;;;11.30;;
3405;SDS011;10008;48.682;9.016;2024-02-16T08:58:50;12.70;;;11.60;;
3405;SDS011;10008;48.682;9.016;2024-02-16T09:01:16;12.60;;;11.60;;
3405;SDS011;10008;48.682;9.016;2024-02-16T09:03:42;12.30;;;11.30;;
3405;SDS011;10008;48.682;9.016;2024-02-16T09:06:08;12.87;;;11.67;;
3405;SDS011;10008;48.682;9.016;2024-02-16T09:08:34;12.40;;;11.40;;
3405;SDS011;10008;48.682;9.016;2024-02-16T09:11:01;12.27;;;11.27;;
3405;SDS011;10008;48.682;9.016;2024-02-16T09:13:34;12.97;;;11.87;;
3405;SDS011;10008;48.682;9.016;2024-02-16T09:16:01;12.87;;;11.40;;
3405;SDS011;10008;48.682;9.016;2024-02-16T09:18:31;12.57;;;11.47;;
3405;SDS011;10008;48.682;9.016;2024-02-16T09:20:57;12.70;;;11.50;;
3405;SDS011;10008;48.682;9.016;2024-02-16T09:23:23;12.90;;;11.70;;
3405;SDS011;10008;48.682;9.016;2024-02-16T09:25:48;12.40;;;11.30;;
3405;SDS011;10008;48.682;9.016;2024-02-16T09:28:16;12.50;;;11.50;;
3405;SDS011;10008;48.682;9.016;2024-02-16T09:30:44;12.70;;;11.40;;
3405;SDS011;10008;48.682;9.016;2024-02-16T09:33:10;12.17;;;11.20;;
3405;SDS011;10008;48.682;9.016;2024-02-16T09:35:36;13.53;;;11.87;;
3405;SDS011;10008;48.682;9.016;2024-02-16T09:38:01;12.50;;;11.43;;
3405;SDS011;10008;48.682;9.016;2024-02-16T09:40:28;11.80;;;10.80;;
3405;SDS011;10008;48.682;9.016;2024-02-16T09:42:53;11.90;;;10.83;;
3405;SDS011;10008;48.682;9.016;2024-02-16T09:45:19;12.13;;;11.13;;
3405;SDS011;10008;48.682;9.016;2024-02-16T09:47:46;14.00;;;11.70;;
3405;SDS011;10008;48.682;9.016;2024-02-16T09:50:12;11.90;;;10.70;;
3405;SDS011;10008;48.682;9.016;2024-02-16T09:52:38;12.13;;;11.07;;
3405;SDS011;10008;48.682;9.016;2024-02-16T09:55:07;12.30;;;11.10;;
3405;SDS011;10008;48.682;9.016;2024-02-16T09:57:37;12.60;;;11.50;;
3405;SDS011;10008;48.682;9.016;2024-02-16T10:00:03;12.50;;;11.40;;
3405;SDS011;10008;48.682;9.016;2024-02-16T10:02:44;12.30;;;11.10;;
3405;SDS011;10008;48.682;9.016;2024-02-16T10:07:40;13.47;;;12.27;;
3405;SDS011;10008;48.682;9.016;2024-02-16T10:10:13;13.00;;;11.70;;
3405;SDS011;10008;48.682;9.016;2024-02-16T10:13:02;11.70;;;10.60;;
3405;SDS011;10008;48.682;9.016;2024-02-16T10:15:30;12.33;;;11.23;;
3405;SDS011;10008;48.682;9.016;2024-02-16T10:17:59;11.90;;;11.00;;
3405;SDS011;10008;48.682;9.016;2024-02-16T10:20:32;12.27;;;11.20;;
3405;SDS011;10008;48.682;9.016;2024-02-16T10:23:05;12.40;;;11.40;;
3405;SDS011;10008;48.682;9.016;2024-02-16T10:25:33;12.47;;;11.47;;
3405;SDS011;10008;48.682;9.016;2024-02-16T10:28:04;12.30;;;11.30;;
3405;SDS011;10008;48.682;9.016;2024-02-16T10:30:42;12.50;;;11.40;;
3405;SDS011;10008;48.682;9.016;2024-02-16T10:33:09;12.23;;;11.23;;
3405;SDS011;10008;48.682;9.016;2024-02-16T10:35:37;12.17;;;11.17;;
3405;SDS011;10008;48.682;9.016;2024-02-16T10:38:04;12.27;;;11.17;;
3405;SDS011;10008;48.682;9.016;2024-02-16T10:40:38;11.63;;;10.73;;
3405;SDS011;10008;48.682;9.016;2024-02-16T10:43:05;17.43;;;11.30;;
3405;SDS011;10008;48.682;9.016;2024-02-16T10:45:35;12.03;;;10.87;;
3405;SDS011;10008;48.682;9.016;2024-02-16T10:48:05;12.50;;;11.50;;
3405;SDS011;10008;48.682;9.016;2024-02-16T10:50:33;12.70;;;11.70;;
3405;SDS011;10008;48.682;9.016;2024-02-16T10:53:03;13.50;;;11.60;;
3405;SDS011;10008;48.682;9.016;2024-02-16T10:55:34;12.80;;;11.70;;
3405;SDS011;10008;48.682;9.016;2024-02-16T10:58:00;12.13;;;11.03;;
3405;SDS011;10008;48.682;9.016;2024-02-16T11:00:26;12.13;;;11.10;;
3405;SDS011;10008;48.682;9.016;2024-02-16T11:02:55;12.20;;;10.80;;
3405;SDS011;10008;48.682;9.016;2024-02-16T11:07:59;12.20;;;11.20;;
3405;SDS011;10008;48.682;9.016;2024-02-16T11:10:26;12.30;;;11.10;;
3405;SDS011;10008;48.682;9.016;2024-02-16T11:12:51;12.20;;;11.20;;
3405;SDS011;10008;48.682;9.016;2024-02-16T11:15:27;11.70;;;10.80;;
3405;SDS011;10008;48.682;9.016;2024-02-16T11:17:55;12.77;;;11.30;;
3405;SDS011;10008;48.682;9.016;2024-02-16T11:20:24;12.20;;;11.10;;
3405;SDS011;10008;48.682;9.016;2024-02-16T11:22:51;12.50;;;11.33;;
3405;SDS011;10008;48.682;9.016;2024-02-16T11:25:18;12.07;;;11.03;;
3405;SDS011;10008;48.682;9.016;2024-02-16T11:27:46;12.10;;;11.00;;
3405;SDS011;10008;48.682;9.016;2024-02-16T11:30:12;11.73;;;10.57;;
3405;SDS011;10008;48.682;9.016;2024-02-16T11:32:38;12.13;;;11.03;;
3405;SDS011;10008;48.682;9.016;2024-02-16T11:35:07;12.97;;;11.47;;
3405;SDS011;10008;48.682;9.016;2024-02-16T11:37:33;11.60;;;10.60;;
3405;SDS011;10008;48.682;9.016;2024-02-16T11:39:59;11.90;;;11.00;;
3405;SDS011;10008;48.682;9.016;2024-02-16T11:42:25;11.90;;;10.70;;
3405;SDS011;10008;48.682;9.016;2024-02-16T11:44:52;11.80;;;10.70;;
3405;SDS011;10008;48.682;9.016;2024-02-16T11:47:22;12.03;;;11.03;;
3405;SDS011;10008;48.682;9.016;2024-02-16T11:50:06;13.50;;;10.90;;
3405;SDS011;10008;48.682;9.016;2024-02-16T11:52:41;12.57;;;11.40;;
3405;SDS011;10008;48.682;9.016;2024-02-16T11:55:07;12.40;;;11.20;;
3405;SDS011;10008;48.682;9.016;2024-02-16T11:57:34;11.70;;;10.80;;
3405;SDS011;10008;48.682;9.016;2024-02-16T12:00:01;14.77;;;11.63;;
3405;SDS011;10008;48.682;9.016;2024-02-16T12:02:33;12.13;;;11.03;;
3405;SDS011;10008;48.682;9.016;2024-02-16T12:05:00;12.60;;;11.30;;
3405;SDS011;10008;48.682;9.016;2024-02-16T12:07:26;12.33;;;11.07;;
3405;SDS011;10008;48.682;9.016;2024-02-16T12:09:56;12.83;;;10.83;;
3405;SDS011;10008;48.682;9.016;2024-02-16T12:12:26;11.97;;;10.90;;
3405;SDS011;10008;48.682;9.016;2024-02-16T12:14:53;12.43;;;11.23;;
3405;SDS011;10008;48.682;9.016;2024-02-16T12:17:19;13.37;;;11.50;;
3405;SDS011;10008;48.682;9.016;2024-02-16T12:19:45;14.20;;;11.40;;
3405;SDS011;10008;48.682;9.016;2024-02-16T12:22:16;12.50;;;11.30;;
3405;SDS011;10008;48.682;9.016;2024-02-16T12:24:49;12.33;;;11.33;;
3405;SDS011;10008;48.682;9.016;2024-02-16T12:27:15;12.33;;;11.23;;
3405;SDS011;10008;48.682;9.016;2024-02-16T12:29:41;13.67;;;11.73;;
3405;SDS011;10008;48.682;9.016;2024-02-16T12:32:07;13.33;;;12.10;;
3405;SDS011;10008;48.682;9.016;2024-02-16T12:34:36;14.33;;;11.43;;
3405;SDS011;10008;48.682;9.016;2024-02-16T12:37:05;12.20;;;11.07;;
3405;SDS011;10008;48.682;9.016;2024-02-16T12:39:36;12.47;;;11.20;;
3405;SDS011;10008;48.682;9.016;2024-02-16T12:42:02;12.30;;;11.10;;
3405;SDS011;10008;48.682;9.016;2024-02-16T12:44:29;12.60;;;11.40;;
3405;SDS011;10008;48.682;9.016;2024-02-16T12:46:55;12.47;;;11.30;;
3405;SDS011;10008;48.682;9.016;2024-02-16T12:49:21;12.43;;;11.33;;
3405;SDS011;10008;48.682;9.016;2024-02-16T12:51:50;12.27;;;11.07;;
3405;SDS011;10008;48.682;9.016;2024-02-16T12:54:17;12.40;;;11.20;;
3405;SDS011;10008;48.682;9.016;2024-02-16T12:56:47;12.67;;;11.40;;
3405;SDS011;10008;48.682;9.016;2024-02-16T12:59:14;12.00;;;10.97;;
3405;SDS011;10008;48.682;9.016;2024-02-16T13:01:40;14.57;;;11.43;;
3405;SDS011;10008;48.682;9.016;2024-02-16T13:04:08;13.47;;;11.00;;
3405;SDS011;10008;48.682;9.016;2024-02-16T13:06:33;13.20;;;12.00;;
3405;SDS011;10008;48.682;9.016;2024-02-16T13:08:59;11.97;;;10.97;;
3405;SDS011;10008;48.682;9.016;2024-02-16T13:11:25;12.50;;;11.30;;
3405;SDS011;10008;48.682;9.016;2024-02-16T13:13:51;12.37;;;11.27;;
3405;SDS011;10008;48.682;9.016;2024-02-16T13:16:17;12.60;;;11.60;;
3405;SDS011;10008;48.682;9.016;2024-02-16T13:18:43;12.93;;;11.70;;
3405;SDS011;10008;48.682;9.016;2024-02-16T13:21:09;12.20;;;11.10;;
3405;SDS011;10008;48.682;9.016;2024-02-16T13:23:34;11.67;;;10.77;;
3405;SDS011;10008;48.682;9.016;2024-02-16T13:26:00;12.03;;;10.93;;
3405;SDS011;10008;48.682;9.016;2024-02-16T13:28:26;11.87;;;10.87;;
3405;SDS011;10008;48.682;9.016;2024-02-16T13:30:52;12.10;;;11.10;;
3405;SDS011;10008;48.682;9.016;2024-02-16T13:33:18;12.57;;;10.70;;
3405;SDS011;10008;48.682;9.016;2024-02-16T13:35:43;12.30;;;11.23;;
3405;SDS011;10008;48.682;9.016;2024-02-16T13:38:09;12.90;;;11.70;;
3405;SDS011;10008;48.682;9.016;2024-02-16T13:40:35;12.43;;;11.10;;
3405;SDS011;10008;48.682;9.016;2024-02-16T13:43:01;12.37;;;11.27;;
3405;SDS011;10008;48.682;9.016;2024-02-16T13:45:28;12.30;;;11.03;;
3405;SDS011;10008;48.682;9.016;2024-02-16T13:48:10;12.13;;;11.03;;
3405;SDS011;10008;48.682;9.016;2024-02-16T13:50:36;12.40;;;11.30;;
3405;SDS011;10008;48.682;9.016;2024-02-16T13:53:02;13.53;;;11.30;;
3405;SDS011;10008;48.682;9.016;2024-02-16T13:55:28;12.73;;;11.50;;
3405;SDS011;10008;48.682;9.016;2024-02-16T13:57:54;13.00;;;11.80;;
3405;SDS011;10008;48.682;9.016;2024-02-16T14:00:19;13.00;;;11.70;;
3405;SDS011;10008;48.682;9.016;2024-02-16T14:02:45;12.70;;;11.37;;
3405;SDS011;10008;48.682;9.016;2024-02-16T14:05:11;12.10;;;11.00;;
3405;SDS011;10008;48.682;9.016;2024-02-16T14:07:37;12.60;;;11.27;;
3405;SDS011;10008;48.682;9.016;2024-02-16T14:10:03;13.97;;;11.40;;
3405;SDS011;10008;48.682;9.016;2024-02-16T14:12:29;12.70;;;11.40;;
3405;SDS011;10008;48.682;9.016;2024-02-16T14:14:55;12.60;;;11.40;;
3405;SDS011;10008;48.682;9.016;2024-02-16T14:17:20;12.93;;;11.63;;
3405;SDS011;10008;48.682;9.016;2024-02-16T14:19:46;15.13;;;11.03;;
3405;SDS011;10008;48.682;9.016;2024-02-16T14:22:12;12.50;;;10.83;;
3405;SDS011;10008;48.682;9.016;2024-02-16T14:24:38;12.17;;;10.33;;
3405;SDS011;10008;48.682;9.016;2024-02-16T14:27:04;11.77;;;10.60;;
3405;SDS011;10008;48.682;9.016;2024-02-16T14:29:31;11.60;;;10.50;;
3405;SDS011;10008;48.682;9.016;2024-02-16T14:31:56;12.37;;;11.07;;
3405;SDS011;10008;48.682;9.016;2024-02-16T14:34:22;12.40;;;11.07;;
3405;SDS011;10008;48.682;9.016;2024-02-16T14:36:48;14.50;;;11.10;;